createdAt,value
2023-05-10T00:00:44.228Z,6.11
2023-05-10T00:01:36.223Z,6.11
2023-05-10T00:02:27.934Z,6.80
2023-05-10T00:03:19.492Z,6.27
2023-05-10T00:04:11.134Z,6.45
2023-05-10T00:05:03.058Z,6.66
2023-05-10T00:05:54.545Z,6.61
2023-05-10T00:06:45.948Z,6.89
2023-05-10T00:07:37.397Z,6.19
2023-05-10T00:08:29.054Z,6.52
2023-05-10T00:09:20.563Z,6.84
2023-05-10T00:10:12.532Z,6.14
2023-05-10T00:11:05.433Z,6.23
2023-05-10T00:12:00.475Z,5.98
2023-05-10T00:12:51.919Z,6.08
2023-05-10T00:13:43.517Z,5.70
2023-05-10T00:14:36.419Z,5.62
2023-05-10T00:15:27.945Z,5.35
2023-05-10T00:16:21.699Z,5.32
2023-05-10T00:17:13.300Z,5.84
2023-05-10T00:18:04.972Z,6.19
2023-05-10T00:18:56.423Z,5.95
2023-05-10T00:19:48.129Z,6.21
2023-05-10T00:20:39.574Z,6.45
2023-05-10T00:21:31.364Z,6.48
2023-05-10T00:22:22.814Z,6.35
2023-05-10T00:23:14.290Z,5.81
2023-05-10T00:24:06.004Z,7.01
2023-05-10T00:24:57.468Z,6.47
2023-05-10T00:25:48.955Z,6.87
2023-05-10T00:26:40.476Z,6.23
2023-05-10T00:27:35.792Z,6.33
2023-05-10T00:28:29.423Z,6.83
2023-05-10T00:29:21.712Z,6.68
2023-05-10T00:30:14.782Z,6.76
2023-05-10T00:31:06.444Z,6.85
2023-05-10T00:31:57.950Z,6.35
2023-05-10T00:32:50.719Z,6.00
2023-05-10T00:33:42.432Z,5.63
2023-05-10T00:34:34.165Z,6.54
2023-05-10T00:35:30.814Z,6.33
2023-05-10T00:36:22.306Z,6.81
2023-05-10T00:37:15.114Z,6.20
2023-05-10T00:38:06.824Z,5.97
2023-05-10T00:38:58.375Z,6.49
2023-05-10T00:39:50.091Z,7.23
2023-05-10T00:40:42.907Z,6.91
2023-05-10T00:41:41.388Z,7.50
2023-05-10T00:42:32.802Z,6.65
2023-05-10T00:43:27.113Z,6.89
2023-05-10T00:44:20.759Z,7.08
2023-05-10T00:45:12.609Z,7.49
2023-05-10T00:46:05.544Z,6.64
2023-05-10T00:46:58.820Z,6.44
2023-05-10T00:47:50.759Z,6.86
2023-05-10T00:48:44.219Z,6.74
2023-05-10T00:49:37.207Z,7.84
2023-05-10T00:50:33.880Z,7.94
2023-05-10T00:51:26.235Z,8.13
2023-05-10T00:52:20.914Z,8.06
2023-05-10T00:53:13.324Z,8.12
2023-05-10T00:54:05.094Z,7.68
2023-05-10T00:54:57.869Z,7.84
2023-05-10T00:55:49.736Z,7.97
2023-05-10T00:56:42.030Z,7.69
2023-05-10T00:57:33.797Z,8.30
2023-05-10T00:58:28.921Z,8.11
2023-05-10T00:59:21.740Z,7.96
2023-05-10T01:00:14.024Z,7.87
2023-05-10T01:01:06.887Z,7.92
2023-05-10T01:02:00.413Z,7.85
2023-05-10T01:02:52.427Z,7.97
2023-05-10T01:03:44.727Z,8.94
2023-05-10T01:04:37.493Z,9.05
2023-05-10T01:05:29.018Z,8.08
2023-05-10T01:06:23.966Z,8.93
2023-05-10T01:07:17.190Z,8.93
2023-05-10T01:08:10.769Z,9.38
2023-05-10T01:09:05.612Z,9.39
2023-05-10T01:09:58.444Z,9.37
2023-05-10T01:10:50.584Z,9.11
2023-05-10T01:11:42.331Z,10.40
2023-05-10T01:12:40.610Z,10.32
2023-05-10T01:13:41.790Z,10.26
2023-05-10T01:14:35.562Z,9.51
2023-05-10T01:15:30.456Z,9.93
2023-05-10T01:16:27.797Z,10.62
2023-05-10T01:17:20.622Z,9.82
2023-05-10T01:18:12.273Z,10.75
2023-05-10T01:19:11.755Z,10.50
2023-05-10T01:20:03.578Z,10.57
2023-05-10T01:21:15.713Z,9.84
2023-05-10T01:22:32.222Z,9.50
2023-05-10T01:23:44.140Z,10.87
2023-05-10T01:24:59.876Z,10.60
2023-05-10T01:26:13.937Z,11.05
2023-05-10T01:27:48.728Z,10.68
2023-05-10T01:28:56.955Z,10.81
2023-05-10T01:30:18.189Z,10.47
2023-05-10T01:31:31.656Z,10.37
2023-05-10T01:32:38.538Z,10.74
2023-05-10T01:33:42.623Z,10.17
2023-05-10T01:35:13.873Z,9.96
2023-05-10T01:36:17.223Z,9.82
2023-05-10T01:37:16.353Z,9.98
2023-05-10T01:38:32.464Z,10.21
2023-05-10T01:39:38.557Z,9.96
2023-05-10T01:40:38.473Z,10.60
2023-05-10T01:41:48.970Z,10.61
2023-05-10T01:42:52.262Z,10.66
2023-05-10T01:44:07.304Z,10.40
2023-05-10T01:45:12.298Z,10.22
2023-05-10T01:46:13.350Z,9.97
2023-05-10T01:47:11.878Z,10.02
2023-05-10T01:48:15.719Z,10.06
2023-05-10T01:49:21.662Z,10.66
2023-05-10T01:50:31.758Z,10.46
2023-05-10T01:51:26.095Z,10.20
2023-05-10T01:52:23.361Z,10.54
2023-05-10T01:53:19.892Z,10.88
2023-05-10T01:54:15.057Z,11.84
2023-05-10T01:55:10.469Z,10.13
2023-05-10T01:56:04.715Z,8.61
2023-05-10T01:57:04.713Z,8.60
2023-05-10T01:58:06.131Z,7.84
2023-05-10T01:59:07.004Z,7.59
2023-05-10T02:00:01.911Z,7.75
2023-05-10T02:00:55.725Z,7.43
2023-05-10T02:01:50.863Z,7.63
2023-05-10T02:02:47.426Z,7.04
2023-05-10T02:03:41.337Z,7.17
2023-05-10T02:04:38.980Z,6.57
2023-05-10T02:05:33.792Z,6.57
2023-05-10T02:06:28.042Z,6.64
2023-05-10T02:07:27.854Z,6.53
2023-05-10T02:08:23.010Z,5.91
2023-05-10T02:09:17.790Z,5.00
2023-05-10T02:10:11.544Z,5.26
2023-05-10T02:11:06.439Z,4.74
2023-05-10T02:12:04.836Z,4.92
2023-05-10T02:13:00.754Z,5.06
2023-05-10T02:13:58.480Z,4.98
2023-05-10T02:14:55.361Z,4.78
2023-05-10T02:15:52.534Z,4.73
2023-05-10T02:16:46.124Z,4.76
2023-05-10T02:17:40.802Z,4.64
2023-05-10T02:18:35.708Z,4.74
2023-05-10T02:19:29.670Z,4.45
2023-05-10T02:20:25.402Z,5.08
2023-05-10T02:21:18.732Z,4.89
2023-05-10T02:22:11.300Z,4.47
2023-05-10T02:23:05.434Z,4.43
2023-05-10T02:24:02.542Z,4.77
2023-05-10T02:24:58.616Z,4.74
2023-05-10T02:25:52.391Z,4.34
2023-05-10T02:26:47.757Z,5.01
2023-05-10T02:27:43.589Z,5.04
2023-05-10T02:28:38.575Z,4.91
2023-05-10T02:29:33.382Z,4.70
2023-05-10T02:30:26.274Z,5.15
2023-05-10T02:31:22.350Z,5.18
2023-05-10T02:32:17.050Z,5.10
2023-05-10T02:33:09.458Z,4.91
2023-05-10T02:34:04.062Z,4.68
2023-05-10T02:34:59.310Z,4.53
2023-05-10T02:35:52.271Z,4.62
2023-05-10T02:36:44.178Z,4.70
2023-05-10T02:37:38.424Z,5.01
2023-05-10T02:38:34.305Z,4.67
2023-05-10T02:39:29.553Z,5.46
2023-05-10T02:40:26.203Z,5.75
2023-05-10T02:41:23.406Z,5.70
2023-05-10T02:42:20.006Z,5.65
2023-05-10T02:43:18.008Z,6.39
2023-05-10T02:44:11.630Z,6.07
2023-05-10T02:45:08.963Z,5.21
2023-05-10T02:46:01.014Z,5.67
2023-05-10T02:46:52.640Z,5.33
2023-05-10T02:47:44.766Z,5.05
2023-05-10T02:48:36.354Z,5.64
2023-05-10T02:49:27.832Z,5.63
2023-05-10T02:50:21.059Z,5.41
2023-05-10T02:51:18.570Z,5.00
2023-05-10T02:52:12.026Z,4.94
2023-05-10T02:53:16.312Z,5.70
2023-05-10T02:54:21.274Z,5.86
2023-05-10T02:55:17.110Z,5.95
2023-05-10T02:56:26.730Z,5.61
2023-05-10T02:57:26.152Z,5.77
2023-05-10T02:58:20.177Z,5.42
2023-05-10T02:59:12.053Z,5.59
2023-05-10T03:00:06.651Z,5.97
2023-05-10T03:01:01.251Z,5.71
2023-05-10T03:01:53.699Z,5.61
2023-05-10T03:02:45.354Z,4.99
2023-05-10T03:03:36.793Z,4.73
2023-05-10T03:04:28.400Z,5.45
2023-05-10T03:05:22.256Z,5.71
2023-05-10T03:06:13.826Z,5.12
2023-05-10T03:07:05.802Z,4.91
2023-05-10T03:07:57.719Z,5.03
2023-05-10T03:08:49.237Z,5.14
2023-05-10T03:09:42.179Z,5.54
2023-05-10T03:10:44.693Z,4.96
2023-05-10T03:11:55.038Z,4.51
2023-05-10T03:13:13.826Z,4.54
2023-05-10T03:14:33.278Z,5.12
2023-05-10T03:15:50.745Z,4.21
2023-05-10T03:16:50.131Z,4.35
2023-05-10T03:17:50.221Z,4.61
2023-05-10T03:19:07.832Z,4.65
2023-05-10T03:20:05.414Z,4.88
2023-05-10T03:21:03.934Z,4.17
2023-05-10T03:22:04.572Z,4.15
2023-05-10T03:23:11.640Z,4.65
2023-05-10T03:24:09.960Z,4.85
2023-05-10T03:25:07.614Z,4.64
2023-05-10T03:26:01.281Z,4.56
2023-05-10T03:26:57.726Z,4.33
2023-05-10T03:27:50.677Z,4.86
2023-05-10T03:28:45.823Z,4.48
2023-05-10T03:29:39.962Z,4.71
2023-05-10T03:30:33.359Z,4.85
2023-05-10T03:31:25.557Z,5.20
2023-05-10T03:32:17.084Z,5.29
2023-05-10T03:33:08.852Z,5.42
2023-05-10T03:34:08.214Z,5.19
2023-05-10T03:34:59.655Z,5.18
2023-05-10T03:35:56.603Z,5.91
2023-05-10T03:36:48.068Z,5.40
2023-05-10T03:37:40.113Z,5.26
2023-05-10T03:38:31.607Z,5.11
2023-05-10T03:39:23.488Z,5.23
2023-05-10T03:40:19.954Z,5.70
2023-05-10T03:41:13.116Z,6.06
2023-05-10T03:42:04.770Z,5.55
2023-05-10T03:42:56.557Z,5.30
2023-05-10T03:43:48.026Z,5.75
2023-05-10T03:44:41.174Z,5.76
2023-05-10T03:45:34.403Z,5.84
2023-05-10T03:46:26.162Z,5.93
2023-05-10T03:47:18.045Z,6.01
2023-05-10T03:48:09.608Z,6.55
2023-05-10T03:49:01.110Z,6.23
2023-05-10T03:49:52.808Z,6.34
2023-05-10T03:50:44.354Z,6.32
2023-05-10T03:51:36.131Z,5.92
2023-05-10T03:52:27.635Z,6.08
2023-05-10T03:53:19.407Z,6.41
2023-05-10T03:54:10.826Z,5.76
2023-05-10T03:55:04.541Z,6.95
2023-05-10T03:55:58.645Z,7.19
2023-05-10T03:56:50.224Z,7.17
2023-05-10T03:57:43.724Z,7.00
2023-05-10T03:58:37.379Z,6.12
2023-05-10T03:59:31.107Z,6.53
2023-05-10T04:00:24.649Z,7.00
2023-05-10T04:01:19.234Z,6.97
2023-05-10T04:02:11.839Z,6.90
2023-05-10T04:03:03.531Z,6.92
2023-05-10T04:03:57.150Z,6.77
2023-05-10T04:04:49.225Z,6.80
2023-05-10T04:05:41.192Z,7.00
2023-05-10T04:06:34.390Z,6.66
2023-05-10T04:07:27.168Z,6.28
2023-05-10T04:08:18.764Z,6.53
2023-05-10T04:09:10.230Z,6.84
2023-05-10T04:10:02.196Z,7.06
2023-05-10T04:10:54.667Z,6.82
2023-05-10T04:11:46.166Z,6.82
2023-05-10T04:12:37.802Z,6.48
2023-05-10T04:13:29.527Z,6.81
2023-05-10T04:14:23.547Z,6.68
2023-05-10T04:15:15.273Z,7.25
2023-05-10T04:16:06.990Z,6.89
2023-05-10T04:16:58.522Z,6.87
2023-05-10T04:17:51.360Z,6.80
2023-05-10T04:18:42.879Z,6.46
2023-05-10T04:19:34.880Z,6.90
2023-05-10T04:20:27.338Z,6.98
2023-05-10T04:21:21.334Z,6.85
2023-05-10T04:22:12.895Z,6.97
2023-05-10T04:23:04.968Z,7.26
2023-05-10T04:23:59.172Z,7.82
2023-05-10T04:24:50.626Z,7.69
2023-05-10T04:25:42.071Z,7.71
2023-05-10T04:26:34.622Z,7.11
2023-05-10T04:27:26.088Z,7.99
2023-05-10T04:28:17.731Z,8.16
2023-05-10T04:29:09.168Z,7.81
2023-05-10T04:30:00.623Z,7.91
2023-05-10T04:30:52.411Z,7.41
2023-05-10T04:31:43.977Z,8.12
2023-05-10T04:32:36.600Z,8.10
2023-05-10T04:33:30.668Z,7.96
2023-05-10T04:34:22.292Z,6.73
2023-05-10T04:35:15.717Z,7.68
2023-05-10T04:36:07.726Z,8.13
2023-05-10T04:36:59.184Z,6.90
2023-05-10T04:37:50.589Z,8.08
2023-05-10T04:38:42.274Z,7.92
2023-05-10T04:39:33.886Z,7.56
2023-05-10T04:40:26.526Z,8.28
2023-05-10T04:41:17.910Z,7.79
2023-05-10T04:42:09.633Z,7.86
2023-05-10T04:43:03.840Z,7.82
2023-05-10T04:43:55.737Z,8.49
2023-05-10T04:44:47.198Z,8.51
2023-05-10T04:45:38.630Z,8.77
2023-05-10T04:46:32.584Z,9.02
2023-05-10T04:47:24.120Z,8.72
2023-05-10T04:48:15.729Z,8.53
2023-05-10T04:49:07.163Z,7.79
2023-05-10T04:49:58.897Z,8.32
2023-05-10T04:50:50.377Z,8.59
2023-05-10T04:51:41.930Z,8.52
2023-05-10T04:52:33.436Z,8.51
2023-05-10T04:53:29.993Z,8.72
2023-05-10T04:54:21.457Z,9.48
2023-05-10T04:55:12.873Z,10.52
2023-05-10T04:56:06.913Z,10.48
2023-05-10T04:56:58.356Z,10.46
2023-05-10T04:57:52.634Z,10.22
2023-05-10T04:58:44.211Z,11.18
2023-05-10T04:59:37.535Z,11.12
2023-05-10T05:00:29.151Z,11.48
2023-05-10T05:01:26.086Z,11.06
2023-05-10T05:02:19.850Z,10.60
2023-05-10T05:03:11.535Z,11.39
2023-05-10T05:04:03.406Z,12.25
2023-05-10T05:04:57.170Z,11.97
2023-05-10T05:05:49.285Z,12.81
2023-05-10T05:06:40.700Z,12.45
2023-05-10T05:07:32.244Z,11.83
2023-05-10T05:08:24.648Z,11.67
2023-05-10T05:09:16.441Z,13.12
2023-05-10T05:10:09.316Z,12.70
2023-05-10T05:11:01.177Z,12.20
2023-05-10T05:11:52.690Z,10.88
2023-05-10T05:12:46.391Z,11.46
2023-05-10T05:13:38.442Z,12.89
2023-05-10T05:14:32.252Z,13.36
2023-05-10T05:15:24.035Z,13.07
2023-05-10T05:16:15.462Z,13.21
2023-05-10T05:17:09.401Z,11.89
2023-05-10T05:18:01.156Z,12.26
2023-05-10T05:18:52.646Z,12.74
2023-05-10T05:19:44.206Z,12.05
2023-05-10T05:20:35.940Z,12.97
2023-05-10T05:21:28.039Z,12.99
2023-05-10T05:22:21.950Z,14.00
2023-05-10T05:23:13.397Z,13.44
2023-05-10T05:24:05.427Z,13.41
2023-05-10T05:24:57.845Z,13.57
2023-05-10T05:25:53.106Z,13.20
2023-05-10T05:26:47.075Z,13.24
2023-05-10T05:27:38.741Z,13.79
2023-05-10T05:28:34.074Z,13.62
2023-05-10T05:29:25.669Z,13.03
2023-05-10T05:30:17.335Z,13.71
2023-05-10T05:31:09.391Z,14.02
2023-05-10T05:32:01.301Z,13.42
2023-05-10T05:32:53.359Z,12.86
2023-05-10T05:33:44.878Z,12.73
2023-05-10T05:34:36.339Z,12.05
2023-05-10T05:35:27.899Z,13.18
2023-05-10T05:36:21.230Z,12.89
2023-05-10T05:37:17.760Z,13.04
2023-05-10T05:38:09.819Z,12.91
2023-05-10T05:39:01.277Z,13.23
2023-05-10T05:39:52.750Z,13.15
2023-05-10T05:40:44.357Z,12.59
2023-05-10T05:41:35.799Z,12.62
2023-05-10T05:42:27.315Z,12.79
2023-05-10T05:43:18.719Z,12.67
2023-05-10T05:44:11.166Z,11.93
2023-05-10T05:45:02.621Z,11.60
2023-05-10T05:45:55.113Z,12.01
2023-05-10T05:46:46.641Z,11.61
2023-05-10T05:47:38.092Z,12.47
2023-05-10T05:48:31.680Z,12.44
2023-05-10T05:49:26.008Z,12.28
2023-05-10T05:50:19.687Z,11.81
2023-05-10T05:51:11.669Z,12.21
2023-05-10T05:52:04.891Z,11.40
2023-05-10T05:52:58.815Z,12.36
2023-05-10T05:53:57.879Z,12.52
2023-05-10T05:54:49.315Z,12.67
2023-05-10T05:55:40.928Z,12.60
2023-05-10T05:56:32.478Z,11.78
2023-05-10T05:57:24.171Z,11.68
2023-05-10T05:58:15.619Z,12.22
2023-05-10T05:59:07.521Z,12.26
2023-05-10T05:59:59.078Z,12.31
2023-05-10T06:00:51.198Z,11.48
2023-05-10T06:01:42.737Z,11.12
2023-05-10T06:02:34.557Z,11.75
2023-05-10T06:03:29.373Z,11.79
2023-05-10T06:04:21.041Z,11.44
2023-05-10T06:05:15.045Z,11.91
2023-05-10T06:06:06.744Z,11.60
2023-05-10T06:07:00.635Z,11.60
2023-05-10T06:07:52.409Z,11.58
2023-05-10T06:08:44.060Z,11.76
2023-05-10T06:09:38.208Z,11.45
2023-05-10T06:10:29.684Z,11.72
2023-05-10T06:11:22.999Z,11.68
2023-05-10T06:12:14.995Z,10.90
2023-05-10T06:13:06.590Z,11.11
2023-05-10T06:13:58.408Z,11.46
2023-05-10T06:14:49.795Z,11.56
2023-05-10T06:15:41.843Z,12.12
2023-05-10T06:16:35.847Z,11.33
2023-05-10T06:17:27.547Z,11.19
2023-05-10T06:18:19.007Z,10.48
2023-05-10T06:19:10.395Z,10.35
2023-05-10T06:20:01.828Z,11.33
2023-05-10T06:20:53.334Z,11.55
2023-05-10T06:21:44.792Z,11.33
2023-05-10T06:22:36.230Z,11.28
2023-05-10T06:23:29.643Z,10.64
2023-05-10T06:24:21.052Z,14.00
2023-05-10T06:25:12.691Z,14.17
2023-05-10T06:26:04.166Z,12.34
2023-05-10T06:26:55.872Z,12.02
2023-05-10T06:27:51.129Z,11.33
2023-05-10T06:28:45.342Z,11.49
2023-05-10T06:29:46.547Z,11.37
2023-05-10T06:30:38.055Z,10.84
2023-05-10T06:31:29.704Z,11.04
2023-05-10T06:32:21.174Z,11.44
2023-05-10T06:33:14.115Z,10.63
2023-05-10T06:34:05.577Z,10.66
2023-05-10T06:34:56.971Z,10.63
2023-05-10T06:35:48.684Z,10.57
2023-05-10T06:36:40.250Z,11.06
2023-05-10T06:37:31.911Z,10.81
2023-05-10T06:38:23.483Z,11.28
2023-05-10T06:39:15.051Z,10.76
2023-05-10T06:40:07.738Z,11.49
2023-05-10T06:40:59.145Z,10.85
2023-05-10T06:41:50.636Z,10.37
2023-05-10T06:42:45.717Z,11.12
2023-05-10T06:43:42.273Z,10.88
2023-05-10T06:44:34.162Z,10.64
2023-05-10T06:45:25.708Z,11.18
2023-05-10T06:46:17.178Z,11.11
2023-05-10T06:47:08.878Z,10.64
2023-05-10T06:48:00.641Z,10.81
2023-05-10T06:48:54.393Z,10.48
2023-05-10T06:49:46.070Z,10.38
2023-05-10T06:50:37.491Z,11.18
2023-05-10T06:51:28.971Z,11.43
2023-05-10T06:52:20.906Z,11.83
2023-05-10T06:53:12.987Z,11.24
2023-05-10T06:54:04.700Z,11.40
2023-05-10T06:54:56.360Z,10.76
2023-05-10T06:55:47.840Z,11.29
2023-05-10T06:56:39.522Z,10.93
2023-05-10T06:57:32.338Z,11.48
2023-05-10T06:58:24.205Z,11.10
2023-05-10T06:59:17.482Z,11.70
2023-05-10T07:00:10.740Z,11.13
2023-05-10T07:01:13.138Z,12.48
2023-05-10T07:02:05.033Z,12.14
2023-05-10T07:02:57.015Z,11.98
2023-05-10T07:03:48.525Z,11.31
2023-05-10T07:04:40.006Z,11.12
2023-05-10T07:05:31.538Z,11.61
2023-05-10T07:06:33.253Z,12.13
2023-05-10T07:07:27.994Z,12.36
2023-05-10T07:08:19.632Z,13.43
2023-05-10T07:09:14.357Z,11.70
2023-05-10T07:10:06.506Z,11.64
2023-05-10T07:11:05.782Z,12.12
2023-05-10T07:11:58.246Z,11.55
2023-05-10T07:12:49.817Z,11.66
2023-05-10T07:13:44.905Z,12.53
2023-05-10T07:14:36.541Z,12.57
2023-05-10T07:15:28.040Z,11.77
2023-05-10T07:16:19.659Z,12.44
2023-05-10T07:17:11.242Z,13.37
2023-05-10T07:18:03.185Z,13.31
2023-05-10T07:18:58.064Z,13.01
2023-05-10T07:19:49.578Z,12.95
2023-05-10T07:20:41.268Z,12.63
2023-05-10T07:21:33.137Z,12.67
2023-05-10T07:22:24.805Z,13.42
2023-05-10T07:23:16.207Z,12.61
2023-05-10T07:24:07.653Z,12.55
2023-05-10T07:24:59.356Z,12.48
2023-05-10T07:25:55.346Z,13.18
2023-05-10T07:26:47.073Z,13.53
2023-05-10T07:27:38.954Z,12.91
2023-05-10T07:28:32.995Z,13.24
2023-05-10T07:29:24.711Z,13.03
2023-05-10T07:30:16.545Z,13.91
2023-05-10T07:31:08.139Z,14.48
2023-05-10T07:31:59.747Z,14.32
2023-05-10T07:32:51.379Z,12.82
2023-05-10T07:33:45.173Z,13.34
2023-05-10T07:34:36.712Z,12.00
2023-05-10T07:35:29.205Z,12.37
2023-05-10T07:36:20.620Z,12.60
2023-05-10T07:37:12.507Z,13.65
2023-05-10T07:38:04.294Z,12.90
2023-05-10T07:38:56.107Z,13.56
2023-05-10T07:39:47.575Z,14.25
2023-05-10T07:40:40.736Z,14.46
2023-05-10T07:41:32.222Z,13.93
2023-05-10T07:42:24.101Z,13.89
2023-05-10T07:43:15.572Z,14.24
2023-05-10T07:44:09.196Z,14.17
2023-05-10T07:45:01.014Z,14.13
2023-05-10T07:45:56.388Z,13.86
2023-05-10T07:46:49.345Z,13.37
2023-05-10T07:47:41.030Z,12.91
2023-05-10T07:48:32.704Z,12.98
2023-05-10T07:49:27.171Z,13.07
2023-05-10T07:50:18.962Z,11.83
2023-05-10T07:51:10.602Z,12.11
2023-05-10T07:52:06.888Z,12.68
2023-05-10T07:53:01.691Z,13.88
2023-05-10T07:54:03.435Z,13.42
2023-05-10T07:54:55.501Z,12.59
2023-05-10T07:55:52.672Z,12.99
2023-05-10T07:56:48.141Z,13.13
2023-05-10T07:57:46.278Z,12.51
2023-05-10T07:58:39.503Z,13.24
2023-05-10T07:59:35.913Z,13.01
2023-05-10T08:00:28.320Z,13.74
2023-05-10T08:01:23.053Z,12.93
2023-05-10T08:02:16.745Z,13.01
2023-05-10T08:03:12.670Z,14.46
2023-05-10T08:04:04.459Z,14.38
2023-05-10T08:04:56.819Z,13.42
2023-05-10T08:05:53.308Z,13.57
2023-05-10T08:06:45.598Z,13.49
2023-05-10T08:07:42.353Z,11.87
2023-05-10T08:08:34.547Z,12.72
2023-05-10T08:09:33.303Z,11.90
2023-05-10T08:10:28.882Z,11.38
2023-05-10T08:11:24.400Z,11.74
2023-05-10T08:12:29.280Z,11.13
2023-05-10T08:13:27.730Z,11.33
2023-05-10T08:14:23.446Z,10.75
2023-05-10T08:15:15.741Z,11.30
2023-05-10T08:16:12.782Z,11.24
2023-05-10T08:17:05.224Z,11.15
2023-05-10T08:18:08.929Z,11.24
2023-05-10T08:19:01.048Z,10.31
2023-05-10T08:19:54.214Z,10.57
2023-05-10T08:20:48.566Z,10.68
2023-05-10T08:21:43.251Z,10.71
2023-05-10T08:22:56.892Z,10.47
2023-05-10T08:23:51.707Z,10.10
2023-05-10T08:24:47.590Z,9.95
2023-05-10T08:25:50.579Z,10.31
2023-05-10T08:26:45.195Z,9.19
2023-05-10T08:27:44.201Z,10.21
2023-05-10T08:28:36.537Z,10.61
2023-05-10T08:29:32.792Z,10.02
2023-05-10T08:30:30.444Z,8.97
2023-05-10T08:31:28.116Z,8.96
2023-05-10T08:32:35.516Z,7.94
2023-05-10T08:35:36.416Z,8.44
2023-05-10T08:36:29.154Z,8.66
2023-05-10T08:37:47.585Z,8.21
2023-05-10T08:38:41.676Z,7.84
2023-05-10T08:39:39.577Z,7.72
2023-05-10T08:40:31.626Z,7.66
2023-05-10T08:41:26.692Z,8.12
2023-05-10T08:42:26.750Z,7.96
2023-05-10T08:43:19.971Z,7.81
2023-05-10T08:44:58.695Z,7.32
2023-05-10T08:45:26.626Z,7.25
2023-05-10T08:46:22.746Z,7.64
2023-05-10T08:47:19.171Z,7.53
2023-05-10T08:48:12.753Z,7.31
2023-05-10T08:49:07.701Z,7.32
2023-05-10T08:50:01.846Z,7.33
2023-05-10T08:50:56.089Z,7.02
2023-05-10T08:51:56.048Z,7.04
2023-05-10T08:52:52.158Z,6.99
2023-05-10T08:53:46.007Z,7.24
2023-05-10T08:54:42.105Z,7.63
2023-05-10T08:55:39.477Z,7.29
2023-05-10T08:56:31.659Z,7.93
2023-05-10T08:57:26.027Z,8.05
2023-05-10T08:58:22.755Z,7.90
2023-05-10T08:59:54.864Z,8.33
2023-05-10T09:00:53.667Z,8.73
2023-05-10T09:01:58.516Z,8.88
2023-05-10T09:03:25.654Z,9.12
2023-05-10T09:04:24.058Z,9.30
2023-05-10T09:05:23.207Z,9.23
2023-05-10T09:06:19.177Z,9.33
2023-05-10T09:07:22.473Z,10.10
2023-05-10T09:09:05.902Z,9.70
2023-05-10T09:10:14.344Z,9.80
2023-05-10T09:11:06.421Z,10.09
2023-05-10T09:12:12.506Z,10.74
2023-05-10T09:13:12.974Z,9.68
2023-05-10T09:14:29.511Z,9.99
2023-05-10T09:15:26.206Z,10.82
2023-05-10T09:17:59.168Z,10.50
2023-05-10T09:18:57.254Z,10.77
2023-05-10T09:20:08.434Z,11.15
2023-05-10T09:21:12.566Z,10.99
2023-05-10T09:22:07.234Z,11.03
2023-05-10T09:23:06.987Z,11.21
2023-05-10T09:24:04.407Z,11.23
2023-05-10T09:25:17.885Z,11.42
2023-05-10T09:26:15.324Z,11.71
2023-05-10T09:27:07.397Z,11.77
2023-05-10T09:28:01.642Z,11.70
2023-05-10T09:28:58.870Z,12.57
2023-05-10T09:29:56.101Z,11.83
2023-05-10T09:30:56.999Z,12.36
2023-05-10T09:31:55.627Z,11.65
2023-05-10T09:32:49.263Z,12.11
2023-05-10T09:33:52.346Z,12.29
2023-05-10T09:34:46.319Z,12.21
2023-05-10T09:35:41.243Z,13.02
2023-05-10T09:37:09.172Z,13.72
2023-05-10T09:38:04.151Z,13.93
2023-05-10T09:38:57.032Z,14.41
2023-05-10T09:39:57.245Z,14.69
2023-05-10T09:40:57.325Z,14.17
2023-05-10T09:41:54.999Z,15.26
2023-05-10T09:43:26.559Z,15.03
2023-05-10T09:44:22.886Z,15.51
2023-05-10T09:45:19.500Z,16.43
2023-05-10T09:46:18.982Z,15.81
2023-05-10T09:47:10.896Z,16.68
2023-05-10T09:48:04.409Z,15.94
2023-05-10T09:49:01.643Z,15.65
2023-05-10T09:49:57.064Z,15.42
2023-05-10T09:50:57.663Z,16.25
2023-05-10T09:52:05.078Z,15.17
2023-05-10T09:53:00.029Z,15.10
2023-05-10T09:54:11.531Z,15.24
2023-05-10T09:55:05.504Z,15.92
2023-05-10T09:55:56.973Z,14.98
2023-05-10T09:56:48.404Z,16.48
2023-05-10T09:57:41.736Z,15.98
2023-05-10T09:58:39.065Z,15.78
2023-05-10T09:59:35.669Z,17.06
2023-05-10T10:00:29.244Z,16.80
2023-05-10T10:01:20.879Z,17.44
2023-05-10T10:02:13.267Z,16.13
2023-05-10T10:03:05.977Z,17.06
2023-05-10T10:03:59.590Z,17.76
2023-05-10T10:04:54.483Z,18.08
2023-05-10T10:05:49.295Z,17.05
2023-05-10T10:06:49.511Z,16.75
2023-05-10T10:08:04.093Z,16.95
2023-05-10T10:08:59.623Z,16.73
2023-05-10T10:09:52.391Z,15.44
2023-05-10T10:10:47.814Z,15.79
2023-05-10T10:11:42.661Z,15.15
2023-05-10T10:12:35.368Z,14.56
2023-05-10T10:13:29.054Z,14.23
2023-05-10T10:14:23.112Z,14.11
2023-05-10T10:15:21.785Z,14.45
2023-05-10T10:16:15.571Z,13.15
2023-05-10T10:17:13.822Z,13.41
2023-05-10T10:18:16.853Z,13.54
2023-05-10T10:19:10.207Z,14.38
2023-05-10T10:20:11.995Z,13.62
2023-05-10T10:22:58.195Z,12.27
2023-05-10T10:26:05.235Z,11.69
2023-05-10T10:28:57.225Z,11.59
2023-05-10T10:30:24.353Z,11.91
2023-05-10T10:31:40.467Z,12.05
2023-05-10T10:33:28.024Z,11.90
2023-05-10T10:34:35.399Z,11.32
2023-05-10T10:35:39.992Z,11.74
2023-05-10T10:36:58.094Z,11.86
2023-05-10T10:41:29.763Z,12.46
2023-05-10T10:42:52.746Z,12.50
2023-05-10T10:44:29.132Z,12.14
2023-05-10T10:45:22.786Z,12.54
2023-05-10T10:46:27.328Z,11.86
2023-05-10T10:47:41.882Z,11.86
2023-05-10T10:48:57.178Z,11.79
2023-05-10T10:50:06.666Z,11.41
2023-05-10T10:50:59.294Z,12.19
2023-05-10T10:52:17.264Z,11.44
2023-05-10T10:53:14.566Z,10.44
2023-05-10T10:54:11.535Z,10.45
2023-05-10T10:55:45.935Z,10.34
2023-05-10T10:56:45.635Z,10.67
2023-05-10T10:58:05.385Z,10.44
2023-05-10T10:59:00.887Z,10.88
2023-05-10T10:59:54.925Z,10.64
2023-05-10T11:00:46.566Z,9.62
2023-05-10T11:01:43.925Z,9.97
2023-05-10T11:02:42.333Z,9.45
2023-05-10T11:03:36.001Z,9.98
2023-05-10T11:04:28.783Z,9.99
2023-05-10T11:05:41.247Z,10.18
2023-05-10T11:06:37.382Z,10.20
2023-05-10T11:07:28.978Z,10.66
2023-05-10T11:08:31.706Z,10.61
2023-05-10T11:09:25.729Z,9.64
2023-05-10T11:10:21.634Z,9.05
2023-05-10T11:11:15.982Z,8.11
2023-05-10T11:12:11.229Z,7.92
2023-05-10T11:13:07.725Z,8.29
2023-05-10T11:14:06.240Z,8.27
2023-05-10T11:14:58.775Z,8.81
2023-05-10T11:15:58.130Z,8.21
2023-05-10T11:16:51.663Z,7.07
2023-05-10T11:17:43.828Z,7.14
2023-05-10T11:18:39.013Z,7.05
2023-05-10T11:19:31.533Z,7.19
2023-05-10T11:20:25.816Z,7.59
2023-05-10T11:21:17.285Z,6.89
2023-05-10T11:22:14.918Z,7.27
2023-05-10T11:23:16.802Z,7.16
2023-05-10T11:24:15.374Z,7.43
2023-05-10T11:25:07.972Z,7.59
2023-05-10T11:26:05.438Z,7.84
2023-05-10T11:27:00.025Z,8.21
2023-05-10T11:27:56.394Z,8.28
2023-05-10T11:28:50.054Z,8.78
2023-05-10T11:29:41.821Z,8.98
2023-05-10T11:30:33.327Z,8.78
2023-05-10T11:31:27.518Z,8.34
2023-05-10T11:32:21.756Z,7.33
2023-05-10T11:33:18.620Z,7.55
2023-05-10T11:34:13.642Z,7.58
2023-05-10T11:35:12.963Z,7.78
2023-05-10T11:36:04.581Z,7.29
2023-05-10T11:36:57.327Z,6.85
2023-05-10T11:37:49.266Z,6.90
2023-05-10T11:38:40.823Z,6.35
2023-05-10T11:39:35.152Z,6.49
2023-05-10T11:40:27.344Z,6.75
2023-05-10T11:41:22.743Z,7.24
2023-05-10T11:42:14.480Z,6.92
2023-05-10T11:43:06.664Z,7.01
2023-05-10T11:44:00.161Z,7.65
2023-05-10T11:44:51.666Z,7.50
2023-05-10T11:45:43.708Z,7.77
2023-05-10T11:46:37.383Z,7.28
2023-05-10T11:47:30.194Z,6.86
2023-05-10T11:48:24.689Z,7.32
2023-05-10T11:49:16.351Z,7.28
2023-05-10T11:50:08.020Z,6.91
2023-05-10T11:50:59.812Z,7.20
2023-05-10T11:51:51.251Z,6.89
2023-05-10T11:52:42.735Z,7.45
2023-05-10T11:53:34.916Z,7.35
2023-05-10T11:54:26.324Z,6.89
2023-05-10T11:55:17.830Z,6.61
2023-05-10T11:56:11.297Z,6.65
2023-05-10T11:57:05.873Z,6.84
2023-05-10T11:58:02.192Z,6.30
2023-05-10T11:58:56.887Z,6.57
2023-05-10T11:59:48.387Z,6.65
2023-05-10T12:00:40.690Z,6.30
2023-05-10T12:01:32.547Z,6.27
2023-05-10T12:02:24.865Z,6.01
2023-05-10T12:03:16.795Z,6.35
2023-05-10T12:04:08.681Z,6.19
2023-05-10T12:05:01.383Z,6.32
2023-05-10T12:05:54.394Z,6.14
2023-05-10T12:06:47.473Z,5.93
2023-05-10T12:07:39.071Z,5.62
2023-05-10T12:08:31.886Z,5.81
2023-05-10T12:09:39.579Z,5.24
2023-05-10T12:10:35.886Z,5.59
2023-05-10T12:11:29.094Z,5.32
2023-05-10T12:12:20.606Z,4.41
2023-05-10T12:13:16.884Z,4.01
2023-05-10T12:14:11.802Z,3.96
2023-05-10T12:15:05.464Z,3.33
2023-05-10T12:15:59.937Z,3.48
2023-05-10T12:16:51.933Z,3.52
2023-05-10T12:17:45.298Z,3.50
2023-05-10T12:18:40.798Z,3.67
2023-05-10T12:19:38.769Z,3.55
2023-05-10T12:20:30.593Z,3.48
2023-05-10T12:21:25.088Z,3.80
2023-05-10T12:22:16.651Z,3.75